createdAt,value
2023-03-04T00:00:25.811Z,86.38
2023-03-04T00:02:55.077Z,86.31
2023-03-04T00:05:24.234Z,86.67
2023-03-04T00:07:54.335Z,86.72
2023-03-04T00:13:05.366Z,87.07
2023-03-04T00:15:34.396Z,86.87
2023-03-04T00:18:08.596Z,87.31
2023-03-04T00:20:37.868Z,87.21
2023-03-04T00:23:07.370Z,87.32
2023-03-04T00:25:38.611Z,87.08
2023-03-04T00:28:07.781Z,87.20
2023-03-04T00:30:36.890Z,87.52
2023-03-04T00:33:06.145Z,87.95
2023-03-04T00:35:35.517Z,87.94
2023-03-04T00:38:04.875Z,88.45
2023-03-04T00:40:34.216Z,88.46
2023-03-04T00:43:05.728Z,88.82
2023-03-04T00:45:41.278Z,88.66
2023-03-04T00:48:11.037Z,88.66
2023-03-04T00:50:40.484Z,88.26
2023-03-04T00:53:14.702Z,88.30
2023-03-04T00:55:44.819Z,88.35
2023-03-04T00:58:16.876Z,88.39
2023-03-04T01:00:46.439Z,88.43
2023-03-04T01:03:15.548Z,88.12
2023-03-04T01:05:45.203Z,88.01
2023-03-04T01:08:14.291Z,88.50
2023-03-04T01:10:43.646Z,88.07
2023-03-04T01:13:12.868Z,88.41
2023-03-04T01:15:44.289Z,88.61
2023-03-04T01:18:14.403Z,88.28
2023-03-04T01:20:43.931Z,88.41
2023-03-04T01:23:13.084Z,88.34
2023-03-04T01:25:43.879Z,88.27
2023-03-04T01:28:18.429Z,88.71
2023-03-04T01:30:49.986Z,88.67
2023-03-04T01:33:19.269Z,89.09
2023-03-04T01:35:48.737Z,88.93
2023-03-04T01:38:18.286Z,89.07
2023-03-04T01:41:07.035Z,89.23
2023-03-04T01:43:38.431Z,88.99
2023-03-04T01:46:09.783Z,88.73
2023-03-04T01:48:40.753Z,89.25
2023-03-04T01:51:16.001Z,89.27
2023-03-04T01:53:45.899Z,89.01
2023-03-04T01:56:20.796Z,89.15
2023-03-04T01:59:12.259Z,89.84
2023-03-04T02:01:45.247Z,89.00
2023-03-04T02:06:52.447Z,88.99
2023-03-04T02:09:26.937Z,89.53
2023-03-04T02:11:57.387Z,89.42
2023-03-04T02:14:26.934Z,89.78
2023-03-04T02:17:03.601Z,89.15
2023-03-04T02:19:44.055Z,89.41
2023-03-04T02:22:18.305Z,89.38
2023-03-04T02:24:52.890Z,89.34
2023-03-04T02:27:25.146Z,89.45
2023-03-04T02:32:30.119Z,89.85
2023-03-04T02:34:59.407Z,89.89
2023-03-04T02:37:35.171Z,90.06
2023-03-04T02:40:04.523Z,90.14
2023-03-04T02:42:35.790Z,90.07
2023-03-04T02:45:05.216Z,90.35
2023-03-04T02:47:34.332Z,90.12
2023-03-04T02:50:03.938Z,90.33
2023-03-04T02:52:33.154Z,90.20
2023-03-04T02:55:02.437Z,90.22
2023-03-04T02:57:39.988Z,90.51
2023-03-04T03:00:11.294Z,90.34
2023-03-04T03:02:47.575Z,90.62
2023-03-04T03:05:17.084Z,91.14
2023-03-04T03:10:27.677Z,91.57
2023-03-04T03:12:59.585Z,91.49
2023-03-04T03:15:40.350Z,91.02
2023-03-04T03:18:09.920Z,91.54
2023-03-04T03:20:39.221Z,91.44
2023-03-04T03:23:13.624Z,91.71
2023-03-04T03:25:42.896Z,92.06
2023-03-04T03:28:14.404Z,91.88
2023-03-04T03:30:43.888Z,91.80
2023-03-04T03:33:12.994Z,91.92
2023-03-04T03:35:47.839Z,92.13
2023-03-04T03:38:17.463Z,92.50
2023-03-04T03:40:47.059Z,92.81
2023-03-04T03:43:18.167Z,92.21
2023-03-04T03:45:47.467Z,92.66
2023-03-04T03:48:16.585Z,92.94
2023-03-04T03:50:50.937Z,92.33
2023-03-04T03:53:20.106Z,92.79
2023-03-04T03:56:00.746Z,92.89
2023-03-04T03:58:32.017Z,93.14
2023-03-04T04:01:06.251Z,93.21
2023-03-04T04:03:35.499Z,92.78
2023-03-04T04:06:04.888Z,93.27
2023-03-04T04:08:39.573Z,92.88
2023-03-04T04:11:11.305Z,93.61
2023-03-04T04:13:42.500Z,93.01
2023-03-04T04:16:12.394Z,92.72
2023-03-04T04:18:42.198Z,92.94
2023-03-04T04:21:11.698Z,93.46
2023-03-04T04:23:41.344Z,93.04
2023-03-04T04:26:17.152Z,93.39
2023-03-04T04:28:48.154Z,93.24
2023-03-04T04:31:17.328Z,93.27
2023-03-04T04:33:46.419Z,93.05
2023-03-04T04:36:17.174Z,93.24
2023-03-04T04:38:49.141Z,93.26
2023-03-04T04:41:20.558Z,94.10
2023-03-04T04:43:52.106Z,92.71
2023-03-04T04:46:21.744Z,92.89
2023-03-04T04:48:51.289Z,92.63
2023-03-04T04:51:20.878Z,92.48
2023-03-04T04:53:50.806Z,92.71
2023-03-04T04:56:22.620Z,92.88
2023-03-04T04:58:54.438Z,92.73
2023-03-04T05:01:23.275Z,93.26
2023-03-04T05:03:52.840Z,92.32
2023-03-04T05:06:22.500Z,92.27
2023-03-04T05:08:57.005Z,91.79
2023-03-04T05:11:26.155Z,91.53
2023-03-04T05:13:57.933Z,91.83
2023-03-04T05:16:27.005Z,91.91
2023-03-04T05:18:56.136Z,91.68
2023-03-04T05:21:30.457Z,91.71
2023-03-04T05:23:59.706Z,91.84
2023-03-04T05:26:33.967Z,91.90
2023-03-04T05:29:05.484Z,91.65
2023-03-04T05:31:41.047Z,91.45
2023-03-04T05:34:10.134Z,91.22
2023-03-04T05:36:39.436Z,90.32
2023-03-04T05:39:13.623Z,89.74
2023-03-04T05:41:42.829Z,89.25
2023-03-04T05:46:49.211Z,88.40
2023-03-04T05:49:18.405Z,88.33
2023-03-04T05:51:47.679Z,87.35
2023-03-04T05:54:17.064Z,87.46
2023-03-04T05:56:46.218Z,87.16
2023-03-04T05:59:25.509Z,86.81
2023-03-04T06:01:55.568Z,86.41
2023-03-04T06:04:29.323Z,85.36
2023-03-04T06:06:59.996Z,85.25
2023-03-04T06:09:42.499Z,84.56
2023-03-04T06:12:14.602Z,84.18
2023-03-04T06:14:45.741Z,83.39
2023-03-04T06:17:14.894Z,83.18
2023-03-04T06:19:43.968Z,83.23
2023-03-04T06:22:13.483Z,82.45
2023-03-04T06:24:42.724Z,81.53
2023-03-04T06:27:17.766Z,80.90
2023-03-04T06:29:48.794Z,80.30
2023-03-04T06:32:23.158Z,80.50
2023-03-04T06:34:52.476Z,80.49
2023-03-04T06:37:21.790Z,79.92
2023-03-04T06:39:51.186Z,80.64
2023-03-04T06:42:20.455Z,79.43
2023-03-04T06:44:52.784Z,78.09
2023-03-04T06:47:25.685Z,77.71
2023-03-04T06:49:55.116Z,77.26
2023-03-04T06:52:24.623Z,76.82
2023-03-04T06:55:02.816Z,76.21
2023-03-04T06:57:32.518Z,76.16
2023-03-04T07:00:04.082Z,74.96
2023-03-04T07:02:34.979Z,74.32
2023-03-04T07:05:04.380Z,73.67
2023-03-04T07:07:33.455Z,73.66
2023-03-04T07:10:02.659Z,73.34
2023-03-04T07:12:32.501Z,73.37
2023-03-04T07:15:03.500Z,72.44
2023-03-04T07:17:39.482Z,72.68
2023-03-04T07:20:09.557Z,72.24
2023-03-04T07:22:38.846Z,71.35
2023-03-04T07:25:13.656Z,70.68
2023-03-04T07:27:42.809Z,70.45
2023-03-04T07:30:15.265Z,70.06
2023-03-04T07:32:44.503Z,70.79
2023-03-04T07:35:13.751Z,70.46
2023-03-04T07:37:43.068Z,71.00
2023-03-04T07:40:14.177Z,70.14
2023-03-04T07:42:43.980Z,70.25
2023-03-04T07:45:19.580Z,68.79
2023-03-04T07:50:24.237Z,66.76
2023-03-04T07:52:53.252Z,67.18
2023-03-04T07:55:32.656Z,67.16
2023-03-04T07:58:06.793Z,67.79
2023-03-04T08:00:37.905Z,67.09
2023-03-04T08:03:07.102Z,66.54
2023-03-04T08:05:36.295Z,66.24
2023-03-04T08:08:10.949Z,65.71
2023-03-04T08:10:40.537Z,66.24
2023-03-04T08:13:10.001Z,65.28
2023-03-04T08:15:45.333Z,63.85
2023-03-04T08:18:14.651Z,64.67
2023-03-04T08:20:44.895Z,65.07
2023-03-04T08:23:14.224Z,66.14
2023-03-04T08:25:44.160Z,66.00
2023-03-04T08:28:20.155Z,66.62
2023-03-04T08:30:56.868Z,66.54
2023-03-04T08:33:26.446Z,67.21
2023-03-04T08:35:55.668Z,66.67
2023-03-04T08:38:25.006Z,66.67
2023-03-04T08:40:55.256Z,66.17
2023-03-04T08:43:25.473Z,65.57
2023-03-04T08:45:57.238Z,65.07
2023-03-04T08:48:26.490Z,65.53
2023-03-04T08:50:56.159Z,64.97
2023-03-04T08:53:25.649Z,65.39
2023-03-04T08:55:54.963Z,63.88
2023-03-04T08:58:29.509Z,64.00
2023-03-04T09:01:01.394Z,63.30
2023-03-04T09:03:30.861Z,63.75
2023-03-04T09:06:00.213Z,63.61
2023-03-04T09:08:29.492Z,64.26
2023-03-04T09:10:58.958Z,64.43
2023-03-04T09:13:30.484Z,63.74
2023-03-04T09:16:11.541Z,63.77
2023-03-04T09:18:41.560Z,64.55
2023-03-04T09:21:11.270Z,64.72
2023-03-04T09:23:41.757Z,64.37
2023-03-04T09:26:23.914Z,63.95
2023-03-04T09:28:54.061Z,65.02
2023-03-04T09:31:30.765Z,64.68
2023-03-04T09:34:01.182Z,64.04
2023-03-04T09:36:31.006Z,62.47
2023-03-04T09:39:02.379Z,61.53
2023-03-04T09:41:39.130Z,61.00
2023-03-04T09:44:17.008Z,60.97
2023-03-04T09:46:50.377Z,61.43
2023-03-04T09:49:23.179Z,62.54
2023-03-04T09:51:58.917Z,62.84
2023-03-04T09:54:48.284Z,62.98
2023-03-04T09:57:28.156Z,63.49
2023-03-04T10:00:07.802Z,63.21
2023-03-04T10:02:52.157Z,64.15
2023-03-04T10:05:23.588Z,64.37
2023-03-04T10:07:59.962Z,63.83
2023-03-04T10:10:35.340Z,64.95
2023-03-04T10:13:07.012Z,65.67
2023-03-04T10:15:40.998Z,65.30
2023-03-04T10:18:20.727Z,65.21
2023-03-04T10:20:56.580Z,65.89
2023-03-04T10:23:33.567Z,66.23
2023-03-04T10:26:12.393Z,65.91
2023-03-04T10:28:46.644Z,66.49
2023-03-04T10:31:22.501Z,65.66
2023-03-04T10:34:00.224Z,64.78
2023-03-04T10:36:40.837Z,63.68
2023-03-04T10:39:13.296Z,63.23
2023-03-04T10:41:45.954Z,62.55
2023-03-04T10:44:18.937Z,61.05
2023-03-04T10:46:56.728Z,60.65
2023-03-04T10:49:29.640Z,60.61
2023-03-04T10:52:04.370Z,59.62
2023-03-04T10:54:39.135Z,60.43
2023-03-04T10:57:17.475Z,59.89
2023-03-04T10:59:57.275Z,61.11
2023-03-04T11:02:36.834Z,61.26
2023-03-04T11:05:19.956Z,62.33
2023-03-04T11:07:57.237Z,61.81
2023-03-04T11:10:35.992Z,62.54
2023-03-04T11:13:14.622Z,63.43
2023-03-04T11:15:54.867Z,64.38
2023-03-04T11:18:36.641Z,64.87
2023-03-04T11:21:09.131Z,65.51
2023-03-04T11:23:48.851Z,66.10
2023-03-04T11:26:33.537Z,67.45
2023-03-04T11:29:10.301Z,67.70
2023-03-04T11:31:48.385Z,68.02
2023-03-04T11:34:29.245Z,68.26
2023-03-04T11:37:05.413Z,68.02
2023-03-04T11:39:38.613Z,68.20
2023-03-04T11:42:15.469Z,68.34
2023-03-04T11:44:44.757Z,68.83
2023-03-04T11:47:33.246Z,69.63
2023-03-04T11:50:25.181Z,70.21
2023-03-04T11:53:16.780Z,70.99
2023-03-04T11:55:52.220Z,72.23
2023-03-04T11:58:42.064Z,74.52
2023-03-04T12:01:17.247Z,73.14
2023-03-04T12:04:09.556Z,75.29
2023-03-04T12:06:52.369Z,76.17
2023-03-04T12:09:40.189Z,77.17
2023-03-04T12:12:27.302Z,77.48
2023-03-04T12:15:06.563Z,77.43
2023-03-04T12:17:56.211Z,78.48
2023-03-04T12:23:43.361Z,79.57
2023-03-04T12:26:31.206Z,81.24
2023-03-04T12:29:15.852Z,81.09
2023-03-04T12:32:00.205Z,81.73
2023-03-04T12:34:35.079Z,82.95
2023-03-04T12:37:35.208Z,84.32
2023-03-04T12:40:25.164Z,84.26
2023-03-04T12:43:09.766Z,83.34
2023-03-04T12:53:13.912Z,81.73
2023-03-04T12:55:46.347Z,83.21
2023-03-04T13:01:15.522Z,86.05
2023-03-04T13:03:54.845Z,85.72
2023-03-04T13:06:46.089Z,86.50
2023-03-04T13:09:26.289Z,86.45
2023-03-04T13:12:05.272Z,85.90
2023-03-04T13:14:37.043Z,86.10
2023-03-04T13:17:43.311Z,88.96
2023-03-04T13:20:35.867Z,88.50
2023-03-04T13:23:06.216Z,87.37
2023-03-04T13:25:48.672Z,87.02
2023-03-04T13:28:31.606Z,88.04
2023-03-04T13:31:23.329Z,89.07
2023-03-04T13:34:01.229Z,87.91
2023-03-04T13:36:56.553Z,89.74
2023-03-04T13:39:34.265Z,88.50
2023-03-04T13:42:27.049Z,88.72
2023-03-04T13:45:03.014Z,89.62
2023-03-04T13:47:47.685Z,90.16
2023-03-04T13:50:43.212Z,89.74
2023-03-04T13:56:28.744Z,89.47
2023-03-04T13:59:39.065Z,90.67
2023-03-04T14:02:18.602Z,90.92
2023-03-04T14:04:49.500Z,89.87
2023-03-04T14:07:26.583Z,89.73
2023-03-04T14:09:57.888Z,89.46
2023-03-04T14:12:29.397Z,89.65
2023-03-04T14:15:01.145Z,90.25
2023-03-04T14:17:41.962Z,91.02
2023-03-04T14:20:27.105Z,91.33
2023-03-04T14:22:57.445Z,89.86
2023-03-04T14:25:28.479Z,90.81
2023-03-04T14:28:12.305Z,91.65
2023-03-04T14:30:44.428Z,91.87
2023-03-04T14:33:23.027Z,92.38
2023-03-04T14:35:54.299Z,92.31
2023-03-04T14:41:09.493Z,92.52
2023-03-04T14:43:44.400Z,93.52
2023-03-04T14:46:18.477Z,93.33
2023-03-04T14:48:57.871Z,94.03
2023-03-04T14:51:33.183Z,94.04
2023-03-04T14:54:02.549Z,93.33
2023-03-04T14:56:32.520Z,93.89
2023-03-04T14:59:02.165Z,94.73
2023-03-04T15:01:34.330Z,95.06
2023-03-04T15:04:08.313Z,95.17
2023-03-04T15:06:40.897Z,95.26
2023-03-04T15:09:21.064Z,95.57
2023-03-04T15:11:57.585Z,94.93
2023-03-04T15:14:45.454Z,95.63
2023-03-04T15:17:31.241Z,95.52
2023-03-04T15:20:22.847Z,95.32
2023-03-04T15:23:08.035Z,95.46
2023-03-04T15:25:37.815Z,95.28
2023-03-04T15:28:14.411Z,95.60
2023-03-04T15:30:43.616Z,95.96
2023-03-04T15:33:21.407Z,95.86
2023-03-04T15:35:57.713Z,96.33
2023-03-04T15:38:33.793Z,96.27
2023-03-04T15:41:03.030Z,96.40
2023-03-04T15:43:38.864Z,96.42
2023-03-04T15:46:08.198Z,96.44
2023-03-04T15:48:37.458Z,96.42
2023-03-04T15:51:15.733Z,97.07
2023-03-04T15:53:47.922Z,96.94
2023-03-04T15:56:24.534Z,96.70
2023-03-04T15:59:00.628Z,97.39
2023-03-04T16:01:30.258Z,97.19
2023-03-04T16:03:59.557Z,97.58
2023-03-04T16:06:38.114Z,98.07
2023-03-04T16:09:10.234Z,97.57
2023-03-04T16:11:45.175Z,98.10
2023-03-04T16:14:14.876Z,97.98
2023-03-04T16:16:46.469Z,98.18
2023-03-04T16:19:15.813Z,98.06
2023-03-04T16:21:47.398Z,98.70
2023-03-04T16:24:19.524Z,98.11
2023-03-04T16:26:49.130Z,98.11
2023-03-04T16:29:23.488Z,98.87
2023-03-04T16:31:52.909Z,98.20
2023-03-04T16:34:22.037Z,98.54
2023-03-04T16:36:53.148Z,98.66
2023-03-04T16:39:25.869Z,98.19
2023-03-04T16:41:55.312Z,98.72
2023-03-04T16:44:30.128Z,98.34
2023-03-04T16:49:34.099Z,98.27
2023-03-04T16:52:05.514Z,98.40
2023-03-04T16:54:39.953Z,98.29
2023-03-04T16:57:10.577Z,98.37
2023-03-04T16:59:39.717Z,98.54
2023-03-04T17:02:16.120Z,98.69
2023-03-04T17:04:46.463Z,98.79
2023-03-04T17:07:23.429Z,98.84
2023-03-04T17:09:52.649Z,98.80
2023-03-04T17:12:21.687Z,98.63
2023-03-04T17:17:33.897Z,98.49
2023-03-04T17:20:10.849Z,97.93
2023-03-04T17:22:42.095Z,98.37
2023-03-04T17:25:12.029Z,98.05
2023-03-04T17:27:41.710Z,98.44
2023-03-04T17:30:16.631Z,98.28
2023-03-04T17:32:45.748Z,98.21
2023-03-04T17:35:15.131Z,98.25
2023-03-04T17:37:46.249Z,98.18
2023-03-04T17:40:15.978Z,98.14
2023-03-04T17:42:45.470Z,98.37
2023-03-04T17:45:14.666Z,98.40
2023-03-04T17:47:43.789Z,98.33
2023-03-04T17:50:14.526Z,98.30
2023-03-04T17:52:45.783Z,98.11
2023-03-04T17:55:15.019Z,98.03
2023-03-04T17:57:44.045Z,98.22
2023-03-04T18:00:19.704Z,98.53
2023-03-04T18:02:51.308Z,98.22
2023-03-04T18:08:02.961Z,98.63
2023-03-04T18:10:32.678Z,98.18
2023-03-04T18:13:03.130Z,97.69
2023-03-04T18:15:32.402Z,97.18
2023-03-04T18:20:36.191Z,97.34
2023-03-04T18:23:07.352Z,97.32
2023-03-04T18:25:36.706Z,97.58
2023-03-04T18:28:06.079Z,97.83
2023-03-04T18:30:40.438Z,98.10
2023-03-04T18:33:09.641Z,97.84
2023-03-04T18:35:38.971Z,97.62
2023-03-04T18:38:15.191Z,97.81
2023-03-04T18:40:45.331Z,97.67
2023-03-04T18:43:24.587Z,97.99
2023-03-04T18:46:02.600Z,98.00
2023-03-04T18:48:34.576Z,98.46
2023-03-04T18:51:04.272Z,98.32
2023-03-04T18:53:35.826Z,98.38
2023-03-04T18:56:12.379Z,97.81
2023-03-04T18:58:45.781Z,97.45
2023-03-04T19:01:16.761Z,96.41
2023-03-04T19:03:47.584Z,96.29
2023-03-04T19:06:17.149Z,96.12
2023-03-04T19:08:55.406Z,95.11
2023-03-04T19:11:24.674Z,95.11
2023-03-04T19:13:54.095Z,94.54
2023-03-04T19:16:28.789Z,94.18
2023-03-04T19:18:57.974Z,94.09
2023-03-04T19:21:35.051Z,94.08
2023-03-04T19:24:06.644Z,93.51
2023-03-04T19:26:40.917Z,93.56
2023-03-04T19:29:10.127Z,92.91
2023-03-04T19:31:41.657Z,92.94
2023-03-04T19:34:16.862Z,92.65
2023-03-04T19:36:46.036Z,92.37
2023-03-04T19:39:18.175Z,92.13
2023-03-04T19:41:47.772Z,92.16
2023-03-04T19:44:16.937Z,92.18
2023-03-04T19:46:51.293Z,92.34
2023-03-04T19:49:20.464Z,92.55
2023-03-04T19:51:49.667Z,92.44
2023-03-04T19:54:20.771Z,92.00
2023-03-04T19:56:50.140Z,91.59
2023-03-04T19:59:24.253Z,91.79
2023-03-04T20:02:00.751Z,91.11
2023-03-04T20:04:30.303Z,91.03
2023-03-04T20:06:59.419Z,90.69
2023-03-04T20:09:30.533Z,90.37
2023-03-04T20:11:59.690Z,89.99
2023-03-04T20:14:29.130Z,90.29
2023-03-04T20:17:06.633Z,89.92
2023-03-04T20:19:36.579Z,89.61
2023-03-04T20:22:06.645Z,88.84
2023-03-04T20:24:38.101Z,87.67
2023-03-04T20:27:07.223Z,88.03
2023-03-04T20:29:36.342Z,87.66
2023-03-04T20:32:06.319Z,87.37
2023-03-04T20:34:36.402Z,86.96
2023-03-04T20:37:05.631Z,87.25
2023-03-04T20:39:34.729Z,87.39
2023-03-04T20:42:06.281Z,86.96
2023-03-04T20:44:35.848Z,86.83
2023-03-04T20:47:05.305Z,86.46
2023-03-04T20:49:34.738Z,86.34
2023-03-04T20:52:06.004Z,86.19
2023-03-04T20:54:36.032Z,85.79
2023-03-04T20:57:08.384Z,86.24
2023-03-04T20:59:43.138Z,86.04
2023-03-04T21:04:57.347Z,86.52
2023-03-04T21:07:26.597Z,86.67
2023-03-04T21:09:56.604Z,86.51
2023-03-04T21:12:27.751Z,86.76
2023-03-04T21:15:00.190Z,86.71
2023-03-04T21:17:29.484Z,86.34
2023-03-04T21:19:58.647Z,86.04
2023-03-04T21:22:28.633Z,86.12
2023-03-04T21:25:02.874Z,86.23
2023-03-04T21:27:38.244Z,85.69
2023-03-04T21:30:14.019Z,85.69
2023-03-04T21:32:43.579Z,85.14
2023-03-04T21:35:16.024Z,84.81
2023-03-04T21:37:45.350Z,84.82
2023-03-04T21:40:15.455Z,84.72
2023-03-04T21:42:51.632Z,84.76
2023-03-04T21:45:21.361Z,84.46
2023-03-04T21:47:51.053Z,84.19
2023-03-04T21:50:20.587Z,84.21
2023-03-04T21:52:49.957Z,84.23
2023-03-04T21:55:19.245Z,84.17
2023-03-04T21:57:50.326Z,84.22
2023-03-04T22:00:21.402Z,83.59
2023-03-04T22:02:50.895Z,83.28
2023-03-04T22:05:20.576Z,83.07
2023-03-04T22:07:49.878Z,83.42
2023-03-04T22:10:19.879Z,83.87
2023-03-04T22:12:51.108Z,84.35
2023-03-04T22:15:20.434Z,84.48
2023-03-04T22:17:49.525Z,84.73
2023-03-04T22:20:19.862Z,85.14
2023-03-04T22:22:49.107Z,84.87
2023-03-04T22:25:18.384Z,84.74
2023-03-04T22:30:30.393Z,84.93
2023-03-04T22:32:59.906Z,85.30
2023-03-04T22:35:35.880Z,85.36
2023-03-04T22:38:05.044Z,85.21
2023-03-04T22:40:35.194Z,85.83
2023-03-04T22:43:06.615Z,85.55
2023-03-04T22:45:41.814Z,85.67
2023-03-04T22:48:11.030Z,85.63
2023-03-04T22:50:40.232Z,85.74
2023-03-04T22:53:09.687Z,85.90
2023-03-04T22:55:38.925Z,86.20
2023-03-04T22:58:09.936Z,85.76
2023-03-04T23:00:44.177Z,85.92
2023-03-04T23:03:13.379Z,85.73
2023-03-04T23:05:42.575Z,86.07
2023-03-04T23:08:11.884Z,86.62
2023-03-04T23:10:43.566Z,86.33
2023-03-04T23:13:15.017Z,86.34
2023-03-04T23:15:44.231Z,86.03
2023-03-04T23:18:13.439Z,86.37
2023-03-04T23:23:18.996Z,86.29
2023-03-04T23:25:51.478Z,86.42
2023-03-04T23:28:23.255Z,86.05
2023-03-04T23:30:57.414Z,86.32
2023-03-04T23:33:26.767Z,86.25
2023-03-04T23:35:55.895Z,86.12
2023-03-04T23:38:25.212Z,86.21
2023-03-04T23:43:31.479Z,86.54
2023-03-04T23:46:00.902Z,86.65
2023-03-04T23:48:30.102Z,86.13
2023-03-04T23:51:04.463Z,85.98
2023-03-04T23:53:39.892Z,86.38
2023-03-04T23:56:11.124Z,86.09
2023-03-04T23:58:43.004Z,85.69
